createdAt,value
2018-10-09T00:02:00.314Z,98207.81
2018-10-09T00:04:30.810Z,98211.81
2018-10-09T00:07:01.235Z,98208.77
2018-10-09T00:09:31.710Z,98212.16
2018-10-09T00:12:02.078Z,98207.94
2018-10-09T00:14:32.741Z,98208.33
2018-10-09T00:17:04.255Z,98206.22
2018-10-09T00:19:36.039Z,98205.94
2018-10-09T00:22:06.502Z,98207.80
2018-10-09T00:24:37.053Z,98202.62
2018-10-09T00:27:07.465Z,98196.80
2018-10-09T00:29:37.999Z,98194.21
2018-10-09T00:32:08.428Z,98197.81
2018-10-09T00:34:39.085Z,98195.96
2018-10-09T00:37:09.625Z,98200.76
2018-10-09T00:39:40.065Z,98193.55
2018-10-09T00:42:10.565Z,98196.24
2018-10-09T00:44:41.070Z,98198.84
2018-10-09T00:47:11.533Z,98196.24
2018-10-09T00:49:42.086Z,98193.37
2018-10-09T00:52:12.597Z,98191.72
2018-10-09T00:54:43.957Z,98187.45
2018-10-09T00:57:14.457Z,98195.61
2018-10-09T00:59:45.034Z,98198.38
2018-10-09T01:02:15.440Z,98192.28
2018-10-09T01:04:45.906Z,98192.09
2018-10-09T01:07:16.345Z,98190.06
2018-10-09T01:09:46.764Z,98190.23
2018-10-09T01:12:17.326Z,98194.79
2018-10-09T01:14:47.835Z,98195.41
2018-10-09T01:17:18.374Z,98200.34
2018-10-09T01:19:48.842Z,98205.77
2018-10-09T01:22:19.271Z,98197.09
2018-10-09T01:24:49.738Z,98201.70
2018-10-09T01:27:20.386Z,98200.80
2018-10-09T01:29:50.885Z,98204.35
2018-10-09T01:32:21.309Z,98203.36
2018-10-09T01:34:52.120Z,98198.16
2018-10-09T01:37:22.581Z,98198.80
2018-10-09T01:39:53.017Z,98195.36
2018-10-09T01:42:23.510Z,98194.98
2018-10-09T01:44:54.118Z,98190.55
2018-10-09T01:47:24.650Z,98195.36
2018-10-09T01:49:55.152Z,98193.16
2018-10-09T01:52:25.620Z,98194.72
2018-10-09T01:54:56.326Z,98193.99
2018-10-09T01:57:26.754Z,98194.33
2018-10-09T01:59:57.209Z,98192.77
2018-10-09T02:02:27.725Z,98189.29
2018-10-09T02:04:58.137Z,98192.78
2018-10-09T02:07:28.501Z,98195.74
2018-10-09T02:09:58.981Z,98189.98
2018-10-09T02:12:29.391Z,98191.84
2018-10-09T02:15:00.560Z,98190.06
2018-10-09T02:17:31.073Z,98185.08
2018-10-09T02:20:01.539Z,98194.26
2018-10-09T02:22:31.961Z,98197.30
2018-10-09T02:25:02.403Z,98202.02
2018-10-09T02:27:33.395Z,98197.22
2018-10-09T02:30:03.817Z,98199.44
2018-10-09T02:32:34.296Z,98198.89
2018-10-09T02:35:05.161Z,98195.95
2018-10-09T02:37:35.655Z,98204.74
2018-10-09T02:40:07.113Z,98197.41
2018-10-09T02:42:37.605Z,98197.80
2018-10-09T02:45:08.126Z,98199.63
2018-10-09T02:47:38.648Z,98203.16
2018-10-09T02:50:09.285Z,98201.48
2018-10-09T02:52:39.845Z,98199.42
2018-10-09T02:55:11.241Z,98196.17
2018-10-09T02:57:41.628Z,98192.22
2018-10-09T03:00:12.059Z,98197.75
2018-10-09T03:02:42.532Z,98196.09
2018-10-09T03:05:13.001Z,98192.13
2018-10-09T03:07:43.432Z,98203.30
2018-10-09T03:10:13.837Z,98196.63
2018-10-09T03:12:44.444Z,98193.11
2018-10-09T03:15:14.981Z,98194.98
2018-10-09T03:17:45.441Z,98196.39
2018-10-09T03:20:15.970Z,98196.11
2018-10-09T03:22:46.469Z,98197.20
2018-10-09T03:25:16.881Z,98198.03
2018-10-09T03:27:47.333Z,98200.52
2018-10-09T03:30:17.784Z,98206.53
2018-10-09T03:32:48.261Z,98204.38
2018-10-09T03:35:20.650Z,98200.59
2018-10-09T03:42:53.366Z,98206.12
2018-10-09T03:45:23.821Z,98203.70
2018-10-09T03:47:54.340Z,98206.00
2018-10-09T03:50:24.769Z,98210.03
2018-10-09T03:52:55.328Z,98206.55
2018-10-09T03:55:25.795Z,98206.12
2018-10-09T03:57:56.288Z,98204.21
2018-10-09T04:00:27.040Z,98207.99
2018-10-09T04:02:57.501Z,98204.12
2018-10-09T04:05:27.954Z,98205.05
2018-10-09T04:07:58.473Z,98207.45
2018-10-09T04:10:28.994Z,98208.58
2018-10-09T04:12:59.441Z,98211.03
2018-10-09T04:15:29.880Z,98212.42
2018-10-09T04:18:00.519Z,98207.90
2018-10-09T04:20:31.161Z,98210.94
2018-10-09T04:23:01.682Z,98214.81
2018-10-09T04:25:32.189Z,98210.45
2018-10-09T04:28:02.697Z,98218.85
2018-10-09T04:30:33.216Z,98214.62
2018-10-09T04:33:04.391Z,98217.00
2018-10-09T04:35:34.905Z,98207.36
2018-10-09T04:38:05.408Z,98217.06
2018-10-09T04:40:36.072Z,98217.41
2018-10-09T04:43:06.598Z,98219.24
2018-10-09T04:45:37.163Z,98219.80
2018-10-09T04:48:07.705Z,98222.88
2018-10-09T04:50:38.213Z,98225.66
2018-10-09T04:53:08.709Z,98223.08
2018-10-09T04:55:39.177Z,98225.91
2018-10-09T04:58:09.668Z,98228.69
2018-10-09T05:00:40.341Z,98204.92
2018-10-09T05:03:10.781Z,98231.86
2018-10-09T05:05:41.230Z,98231.25
2018-10-09T05:08:11.681Z,98231.55
2018-10-09T05:10:42.196Z,98233.32
2018-10-09T05:13:13.693Z,98237.52
2018-10-09T05:15:44.851Z,98241.23
2018-10-09T05:18:15.262Z,98241.71
2018-10-09T05:20:46.081Z,98245.70
2018-10-09T05:23:16.686Z,98248.48
2018-10-09T05:25:47.174Z,98254.72
2018-10-09T05:28:17.646Z,98252.31
2018-10-09T05:30:48.162Z,98254.82
2018-10-09T05:33:20.000Z,98260.00
2018-10-09T05:35:50.509Z,98268.71
2018-10-09T05:38:21.004Z,98272.05
2018-10-09T05:40:52.706Z,98272.78
2018-10-09T05:43:23.219Z,98277.23
2018-10-09T05:45:53.684Z,98283.89
2018-10-09T05:48:24.194Z,98279.90
2018-10-09T05:50:54.643Z,98274.23
2018-10-09T05:53:25.158Z,98282.25
2018-10-09T05:55:55.740Z,98282.52
2018-10-09T05:58:26.219Z,98284.61
2018-10-09T06:00:57.024Z,98283.20
2018-10-09T06:03:27.546Z,98285.28
2018-10-09T06:05:58.249Z,98291.02
2018-10-09T06:08:28.724Z,98292.22
2018-10-09T06:10:59.242Z,98289.08
2018-10-09T06:13:29.797Z,98293.18
2018-10-09T06:16:00.361Z,98288.52
2018-10-09T06:18:30.733Z,98289.88
2018-10-09T06:21:04.929Z,98296.59
2018-10-09T06:23:35.555Z,98304.27
2018-10-09T06:26:05.998Z,98308.17
2018-10-09T06:28:36.495Z,98308.70
2018-10-09T06:31:07.262Z,98310.87
2018-10-09T06:33:37.732Z,98317.38
2018-10-09T06:36:09.009Z,98318.02
2018-10-09T06:38:39.570Z,98330.14
2018-10-09T06:41:10.293Z,98321.58
2018-10-09T06:43:40.733Z,98331.72
2018-10-09T06:46:13.855Z,98337.80
2018-10-09T06:48:44.316Z,98328.83
2018-10-09T06:51:14.751Z,98335.20
2018-10-09T06:53:45.643Z,98336.03
2018-10-09T06:56:15.946Z,98338.34
2018-10-09T06:58:46.374Z,98295.16
2018-10-09T07:01:17.408Z,98335.86
2018-10-09T07:03:47.921Z,98335.56
2018-10-09T07:06:18.328Z,98338.64
2018-10-09T07:08:48.984Z,98330.97
2018-10-09T07:11:19.593Z,98335.71
2018-10-09T07:13:49.885Z,98334.09
2018-10-09T07:16:20.400Z,98338.11
2018-10-09T07:18:50.925Z,98338.27
2018-10-09T07:21:22.360Z,98340.88
2018-10-09T07:23:52.776Z,98351.94
2018-10-09T07:26:23.913Z,98353.58
2018-10-09T07:28:54.411Z,98350.00
2018-10-09T07:31:24.824Z,98360.06
2018-10-09T07:33:55.301Z,98352.84
2018-10-09T07:36:25.784Z,98355.88
2018-10-09T07:38:56.167Z,98358.70
2018-10-09T07:41:27.862Z,98353.91
2018-10-09T07:43:59.068Z,98357.36
2018-10-09T07:46:30.647Z,98359.64
2018-10-09T07:49:01.730Z,98358.83
2018-10-09T07:51:33.092Z,98361.42
2018-10-09T07:54:03.574Z,98362.92
2018-10-09T07:56:33.977Z,98360.88
2018-10-09T07:59:04.460Z,98365.13
